createdAt,value
2019-03-11T00:02:41.186Z,8.10
2019-03-11T00:05:19.518Z,6.83
2019-03-11T00:08:00.933Z,7.20
2019-03-11T00:10:39.164Z,5.60
2019-03-11T00:13:20.603Z,3.80
2019-03-11T00:15:58.963Z,3.30
2019-03-11T00:18:40.289Z,3.10
2019-03-11T00:21:18.403Z,2.20
2019-03-11T00:23:59.820Z,3.17
2019-03-11T00:26:41.249Z,3.47
2019-03-11T00:29:22.209Z,2.50
2019-03-11T00:32:03.890Z,2.03
2019-03-11T00:34:44.951Z,3.73
2019-03-11T00:37:26.332Z,2.97
2019-03-11T00:40:07.981Z,3.70
2019-03-11T00:42:49.415Z,2.73
2019-03-11T00:45:30.477Z,3.07
2019-03-11T00:48:11.872Z,3.20
2019-03-11T00:50:53.282Z,3.23
2019-03-11T00:53:34.083Z,1.33
2019-03-11T00:56:15.432Z,2.30
2019-03-11T01:01:24.216Z,3.40
2019-03-11T01:04:12.950Z,3.60
2019-03-11T01:07:01.712Z,2.53
2019-03-11T01:09:50.408Z,3.60
2019-03-11T01:12:39.177Z,3.10
2019-03-11T01:15:28.582Z,2.67
2019-03-11T01:18:17.331Z,3.03
2019-03-11T01:21:06.112Z,0.80
2019-03-11T01:23:47.151Z,2.07
2019-03-11T01:26:28.743Z,2.33
2019-03-11T01:29:10.465Z,2.40
2019-03-11T01:31:52.029Z,2.80
2019-03-11T01:34:35.410Z,2.73
2019-03-11T01:37:16.777Z,3.00
2019-03-11T01:39:55.051Z,2.10
2019-03-11T01:42:36.263Z,2.60
2019-03-11T01:45:17.483Z,2.90
2019-03-11T01:47:58.830Z,2.63
2019-03-11T01:50:27.839Z,2.70
2019-03-11T01:53:16.577Z,3.10
2019-03-11T01:56:05.221Z,2.40
2019-03-11T01:58:46.360Z,2.70
2019-03-11T02:01:27.222Z,2.60
2019-03-11T02:04:08.741Z,2.60
2019-03-11T02:06:49.927Z,2.43
2019-03-11T02:09:31.695Z,2.20
2019-03-11T02:12:13.198Z,2.23
2019-03-11T02:14:54.483Z,1.97
2019-03-11T02:17:36.217Z,2.10
2019-03-11T02:20:17.033Z,1.60
2019-03-11T02:22:46.654Z,2.00
2019-03-11T02:25:16.916Z,2.70
2019-03-11T02:28:05.593Z,2.10
2019-03-11T02:30:35.498Z,2.53
2019-03-11T02:33:24.205Z,1.60
2019-03-11T02:36:05.723Z,2.50
2019-03-11T02:41:26.170Z,2.50
2019-03-11T02:44:07.760Z,2.37
2019-03-11T02:46:49.645Z,2.53
2019-03-11T02:49:31.085Z,2.03
2019-03-11T02:52:12.361Z,2.60
2019-03-11T02:54:53.948Z,2.57
2019-03-11T02:57:35.377Z,2.57
2019-03-11T03:00:13.805Z,2.40
2019-03-11T03:06:09.257Z,1.67
2019-03-11T03:08:50.038Z,1.93
2019-03-11T03:11:28.249Z,1.70
2019-03-11T03:14:10.777Z,1.30
2019-03-11T03:16:52.173Z,1.43
2019-03-11T03:22:13.247Z,1.63
2019-03-11T03:24:54.762Z,1.37
2019-03-11T03:27:33.920Z,1.20
2019-03-11T03:30:15.064Z,0.60
2019-03-11T03:32:53.553Z,1.40
2019-03-11T03:35:34.759Z,1.30
2019-03-11T03:38:29.632Z,1.03
2019-03-11T03:40:58.480Z,0.90
2019-03-11T03:43:39.610Z,0.90
2019-03-11T03:46:20.688Z,1.40
2019-03-11T03:49:02.406Z,1.10
2019-03-11T03:51:43.638Z,1.27
2019-03-11T03:54:25.428Z,1.13
2019-03-11T03:57:06.897Z,0.90
2019-03-11T03:59:48.777Z,1.20
2019-03-11T04:05:11.027Z,1.30
2019-03-11T04:07:40.094Z,1.20
2019-03-11T04:10:32.165Z,1.20
2019-03-11T04:13:11.255Z,0.63
2019-03-11T04:15:52.757Z,1.20
2019-03-11T04:18:34.296Z,0.90
2019-03-11T04:21:15.363Z,1.30
2019-03-11T04:26:36.368Z,1.20
2019-03-11T04:29:18.839Z,2.30
2019-03-11T04:32:00.281Z,1.43
2019-03-11T04:34:39.383Z,1.90
2019-03-11T04:37:21.085Z,1.83
2019-03-11T04:40:02.357Z,1.53
2019-03-11T04:45:22.916Z,1.30
2019-03-11T04:48:04.475Z,1.50
2019-03-11T04:50:45.921Z,2.03
2019-03-11T04:53:27.510Z,1.83
2019-03-11T04:56:08.695Z,2.30
2019-03-11T04:58:50.270Z,1.80
2019-03-11T05:01:31.852Z,1.80
2019-03-11T05:04:13.167Z,1.57
2019-03-11T05:12:19.692Z,1.57
2019-03-11T05:15:00.633Z,1.70
2019-03-11T05:20:24.837Z,2.10
2019-03-11T05:23:06.556Z,1.57
2019-03-11T05:25:44.638Z,0.57
2019-03-11T05:28:27.511Z,1.87
2019-03-11T05:31:08.494Z,2.37
2019-03-11T05:33:49.326Z,1.40
2019-03-11T05:36:27.473Z,2.10
2019-03-11T05:39:08.928Z,2.17
2019-03-11T05:41:47.097Z,1.70
2019-03-11T05:44:26.514Z,2.03
2019-03-11T05:46:56.213Z,1.77
2019-03-11T05:49:25.828Z,1.87
2019-03-11T05:52:13.872Z,1.17
2019-03-11T05:57:27.698Z,1.60
2019-03-11T05:59:57.439Z,1.33
2019-03-11T06:02:46.160Z,1.73
2019-03-11T06:05:34.976Z,1.30
2019-03-11T06:08:23.908Z,1.53
2019-03-11T06:11:12.742Z,1.83
2019-03-11T06:13:54.185Z,2.03
2019-03-11T06:16:23.964Z,2.20
2019-03-11T06:18:54.063Z,2.10
2019-03-11T06:21:42.703Z,2.03
2019-03-11T06:24:12.445Z,2.27
2019-03-11T06:26:42.154Z,2.03
2019-03-11T06:29:31.077Z,1.07
2019-03-11T06:32:12.085Z,1.67
2019-03-11T06:34:53.791Z,2.10
2019-03-11T06:37:35.418Z,1.43
2019-03-11T06:40:16.425Z,2.07
2019-03-11T06:42:57.610Z,1.53
2019-03-11T06:45:39.227Z,1.83
2019-03-11T06:48:17.536Z,1.60
2019-03-11T06:50:59.071Z,1.97
2019-03-11T06:53:37.529Z,2.00
2019-03-11T06:56:18.900Z,1.93
2019-03-11T06:59:00.465Z,1.90
2019-03-11T07:01:41.532Z,1.77
2019-03-11T07:04:23.012Z,2.33
2019-03-11T07:07:04.541Z,2.70
2019-03-11T07:09:43.304Z,2.47
2019-03-11T07:12:24.661Z,2.97
2019-03-11T07:15:03.009Z,1.27
2019-03-11T07:17:44.661Z,2.60
2019-03-11T07:20:26.131Z,2.30
2019-03-11T07:25:46.799Z,3.03
2019-03-11T07:28:28.248Z,1.90
2019-03-11T07:33:48.643Z,2.60
2019-03-11T07:36:29.771Z,2.27
2019-03-11T07:41:50.394Z,2.30
2019-03-11T07:44:31.608Z,1.80
2019-03-11T07:47:13.447Z,2.70
2019-03-11T07:49:54.376Z,1.90
2019-03-11T07:55:19.325Z,1.27
2019-03-11T07:58:00.755Z,1.73
2019-03-11T08:00:53.065Z,1.13
2019-03-11T08:03:24.570Z,1.93
2019-03-11T08:06:14.804Z,2.40
2019-03-11T08:08:49.829Z,2.20
2019-03-11T08:11:28.518Z,2.13
2019-03-11T08:14:10.044Z,2.40
2019-03-11T08:16:48.317Z,1.70
2019-03-11T08:19:27.509Z,2.10
2019-03-11T08:22:06.867Z,2.03
2019-03-11T08:24:46.505Z,2.00
2019-03-11T08:27:27.508Z,2.37
2019-03-11T08:29:59.496Z,1.90
2019-03-11T08:32:47.781Z,1.67
2019-03-11T08:35:29.111Z,2.00
2019-03-11T08:38:07.398Z,1.63
2019-03-11T08:40:46.599Z,1.47
2019-03-11T08:43:30.378Z,3.33
2019-03-11T08:46:11.860Z,1.80
2019-03-11T08:48:50.833Z,1.43
2019-03-11T08:51:32.302Z,1.70
2019-03-11T08:54:10.753Z,1.90
2019-03-11T08:56:52.167Z,1.70
2019-03-11T08:59:30.414Z,1.60
2019-03-11T09:02:11.970Z,1.13
2019-03-11T09:04:53.656Z,1.50
2019-03-11T09:07:31.922Z,1.17
2019-03-11T09:10:18.776Z,1.63
2019-03-11T09:12:48.594Z,1.27
2019-03-11T09:15:37.285Z,1.57
2019-03-11T09:18:26.074Z,1.87
2019-03-11T09:21:14.907Z,1.63
2019-03-11T09:24:03.690Z,1.20
2019-03-11T09:26:52.399Z,1.70
2019-03-11T09:32:14.570Z,1.53
2019-03-11T09:34:55.892Z,2.30
2019-03-11T09:37:37.319Z,1.80
2019-03-11T09:42:57.952Z,2.10
2019-03-11T09:45:39.363Z,2.30
2019-03-11T09:48:20.728Z,1.83
2019-03-11T09:53:42.967Z,1.93
2019-03-11T09:59:07.837Z,3.33
2019-03-11T10:01:48.764Z,3.73
2019-03-11T10:04:30.131Z,2.90
2019-03-11T10:09:53.634Z,3.83
2019-03-11T10:12:40.025Z,4.63
2019-03-11T10:15:21.767Z,5.70
2019-03-11T10:18:03.375Z,5.47
2019-03-11T10:23:32.168Z,7.00
2019-03-11T10:26:11.739Z,6.97
2019-03-11T10:28:55.352Z,7.97
2019-03-11T10:31:36.747Z,5.57
2019-03-11T10:36:57.366Z,5.57
2019-03-11T10:39:39.267Z,4.67
2019-03-11T10:45:04.031Z,4.83
2019-03-11T10:47:45.778Z,5.03
2019-03-11T10:50:27.747Z,4.50
2019-03-11T10:55:48.445Z,5.03
2019-03-11T10:58:29.485Z,4.83
2019-03-11T11:03:53.750Z,3.63
2019-03-11T11:06:23.677Z,4.43
2019-03-11T11:08:53.666Z,4.57
2019-03-11T11:14:44.095Z,3.60
2019-03-11T11:20:07.061Z,2.80
2019-03-11T11:22:48.029Z,3.30
2019-03-11T11:28:08.874Z,3.00
2019-03-11T11:30:51.666Z,2.50
2019-03-11T11:33:33.266Z,2.73
2019-03-11T11:36:11.981Z,2.57
2019-03-11T11:41:38.249Z,2.50
2019-03-11T11:44:20.965Z,2.30
2019-03-11T11:47:05.735Z,2.20
2019-03-11T11:49:48.018Z,2.10
2019-03-11T11:52:29.196Z,2.00
2019-03-11T11:55:07.542Z,1.70
2019-03-11T11:57:49.329Z,1.90
2019-03-11T12:00:28.210Z,2.60
2019-03-11T12:03:10.839Z,2.50
2019-03-11T12:05:53.186Z,1.60
2019-03-11T12:08:12.295Z,1.33
2019-03-11T12:11:18.369Z,1.57
2019-03-11T12:13:35.450Z,1.33
2019-03-11T12:16:26.281Z,1.63
2019-03-11T12:19:09.426Z,2.00
2019-03-11T12:27:17.911Z,1.80
2019-03-11T12:30:02.347Z,1.67
2019-03-11T12:32:43.778Z,1.70
2019-03-11T12:35:14.147Z,2.00
2019-03-11T12:37:43.333Z,1.90
2019-03-11T12:40:35.367Z,1.53
2019-03-11T12:43:05.471Z,1.63
2019-03-11T12:45:34.745Z,1.83
2019-03-11T12:48:16.181Z,2.23
2019-03-11T12:53:42.641Z,2.40
2019-03-11T12:56:25.791Z,2.40
2019-03-11T12:59:08.050Z,2.40
2019-03-11T13:01:50.737Z,2.30
2019-03-11T13:04:32.752Z,2.30
2019-03-11T13:09:56.222Z,2.20
2019-03-11T13:12:37.206Z,1.50
2019-03-11T13:18:04.815Z,2.50
2019-03-11T13:20:46.225Z,2.30
2019-03-11T13:23:32.484Z,2.70
2019-03-11T13:28:56.274Z,2.30
2019-03-11T13:34:30.733Z,2.30
2019-03-11T13:37:19.676Z,2.67
2019-03-11T13:40:10.590Z,1.93
2019-03-11T13:45:35.619Z,2.20
2019-03-11T13:48:18.498Z,2.50
2019-03-11T13:51:02.023Z,1.40
2019-03-11T13:53:43.514Z,2.17
2019-03-11T13:59:04.539Z,1.93
2019-03-11T14:04:26.175Z,2.17
2019-03-11T14:07:04.399Z,1.90
2019-03-11T14:09:49.457Z,2.10
2019-03-11T14:12:31.063Z,2.00
2019-03-11T14:15:14.348Z,2.10
2019-03-11T14:23:41.811Z,2.10
2019-03-11T14:26:11.088Z,2.23
2019-03-11T14:31:31.233Z,2.53
2019-03-11T14:36:41.467Z,2.10
2019-03-11T14:39:49.710Z,2.10
2019-03-11T14:42:30.969Z,2.50
2019-03-11T14:45:15.379Z,2.50
2019-03-11T14:51:15.784Z,2.30
2019-03-11T14:59:27.940Z,2.77
2019-03-11T15:02:09.379Z,2.67
2019-03-11T15:07:31.214Z,3.17
2019-03-11T15:10:15.226Z,2.73
2019-03-11T15:13:03.524Z,3.37
2019-03-11T15:15:44.717Z,3.50
2019-03-11T15:18:14.840Z,3.60
2019-03-11T15:23:48.389Z,3.13
2019-03-11T15:29:25.786Z,3.03
2019-03-11T15:32:13.306Z,3.07
2019-03-11T15:35:18.092Z,2.77
2019-03-11T15:37:48.474Z,3.50
2019-03-11T15:40:28.101Z,3.43
2019-03-11T16:01:04.684Z,3.53
2019-03-11T16:06:54.379Z,3.27
2019-03-11T16:09:30.275Z,3.03
2019-03-11T16:12:37.762Z,2.20
2019-03-11T16:18:19.044Z,3.70
2019-03-11T16:24:11.781Z,2.37
2019-03-11T16:41:40.794Z,2.90
2019-03-11T16:44:32.275Z,3.30
2019-03-11T16:47:12.374Z,3.43
2019-03-11T16:49:58.511Z,3.33
2019-03-11T16:52:41.453Z,3.80
2019-03-11T16:55:25.424Z,4.10
2019-03-11T16:58:04.226Z,3.70
2019-03-11T17:00:49.421Z,4.07
2019-03-11T17:14:57.752Z,5.13
2019-03-11T17:41:16.324Z,5.73
2019-03-11T17:47:20.976Z,5.90
2019-03-11T18:00:58.219Z,7.27
2019-03-11T18:06:28.328Z,8.00
2019-03-11T18:09:11.775Z,8.20
2019-03-11T18:11:53.857Z,7.60
2019-03-11T18:17:17.893Z,7.73
2019-03-11T18:19:59.066Z,8.50
2019-03-11T18:22:41.445Z,10.27
2019-03-11T18:25:29.064Z,11.27
2019-03-11T18:28:16.536Z,11.33
2019-03-11T18:30:59.409Z,11.77
2019-03-11T18:41:52.175Z,14.37
2019-03-11T18:48:14.191Z,10.87
2019-03-11T18:56:24.424Z,10.50
2019-03-11T18:59:06.901Z,11.53
2019-03-11T19:04:31.198Z,12.37
2019-03-11T19:10:35.653Z,10.83
2019-03-11T19:18:43.925Z,11.50
2019-03-11T19:21:15.800Z,11.27
2019-03-11T19:26:35.897Z,11.43
2019-03-11T19:29:05.534Z,11.67
2019-03-11T19:31:50.272Z,11.30
2019-03-11T19:34:20.180Z,11.53
2019-03-11T19:37:09.380Z,11.57
2019-03-11T19:45:42.809Z,11.07
2019-03-11T19:48:24.538Z,11.13
2019-03-11T19:53:47.899Z,10.07
2019-03-11T19:56:19.223Z,11.40
2019-03-11T19:58:49.651Z,11.10
2019-03-11T20:01:20.186Z,12.53
2019-03-11T20:03:50.557Z,11.83
2019-03-11T20:06:23.115Z,10.47
2019-03-11T20:09:17.907Z,10.03
2019-03-11T20:12:00.152Z,9.30
2019-03-11T20:14:41.914Z,8.13
2019-03-11T20:17:23.287Z,8.47
2019-03-11T20:20:04.862Z,8.70
2019-03-11T20:22:47.267Z,7.97
2019-03-11T20:25:25.709Z,7.13
2019-03-11T20:28:06.925Z,7.83
2019-03-11T20:30:45.984Z,7.20
2019-03-11T20:33:32.326Z,6.80
2019-03-11T20:39:05.772Z,11.67
2019-03-11T20:44:27.437Z,11.87
2019-03-11T20:47:09.096Z,12.03
2019-03-11T20:52:30.458Z,12.77
2019-03-11T20:57:51.225Z,11.07
2019-03-11T21:00:34.463Z,8.27
2019-03-11T21:03:18.670Z,12.43
2019-03-11T21:08:46.470Z,11.97
2019-03-11T21:11:36.609Z,11.73
2019-03-11T21:16:57.821Z,11.60
2019-03-11T21:19:40.357Z,11.73
2019-03-11T21:22:19.211Z,11.53
2019-03-11T21:30:40.588Z,10.47
2019-03-11T21:36:23.049Z,10.70
2019-03-11T21:39:05.234Z,8.47
2019-03-11T21:47:10.383Z,8.73
2019-03-11T21:52:31.691Z,5.17
2019-03-11T21:55:11.015Z,7.67
2019-03-11T21:57:50.361Z,8.30
2019-03-11T22:03:29.851Z,7.03
2019-03-11T22:08:51.589Z,7.57
2019-03-11T22:11:33.222Z,6.33
2019-03-11T22:14:11.442Z,7.13
2019-03-11T22:16:52.451Z,6.43
2019-03-11T22:22:13.485Z,6.00
2019-03-11T22:24:51.692Z,5.00
2019-03-11T22:27:33.191Z,6.57
2019-03-11T22:30:15.140Z,6.97
2019-03-11T22:35:35.229Z,6.53
2019-03-11T22:40:55.797Z,5.13
2019-03-11T22:43:25.146Z,5.63
2019-03-11T22:46:13.204Z,4.93
2019-03-11T22:51:39.187Z,5.53
2019-03-11T22:54:27.939Z,5.23
2019-03-11T22:56:57.696Z,5.20
2019-03-11T22:59:27.460Z,5.53
2019-03-11T23:02:16.571Z,6.53
2019-03-11T23:04:57.378Z,6.13
2019-03-11T23:10:19.296Z,6.47
2019-03-11T23:13:00.625Z,6.63
2019-03-11T23:18:22.184Z,7.40
2019-03-11T23:21:03.391Z,6.50
2019-03-11T23:23:44.770Z,6.97
2019-03-11T23:26:23.644Z,7.67
2019-03-11T23:29:05.445Z,8.13
2019-03-11T23:31:46.936Z,4.93
2019-03-11T23:34:28.175Z,7.30
2019-03-11T23:36:57.286Z,6.63
2019-03-11T23:39:46.031Z,5.70
2019-03-11T23:42:37.187Z,6.97
2019-03-11T23:45:20.149Z,4.70
2019-03-11T23:50:43.963Z,3.73
2019-03-11T23:53:31.300Z,5.70
2019-03-11T23:58:52.206Z,4.87
